Latest Coastal Weather Observations for Dum In Mirrie

IDD60701

Issued at 8:01 pm CST Friday 1 March 2024 (issued every 10 minutes, with the page automatically refreshed every 10 minutes)

About coastal observations | Map of coastal stations | Coastal observations for NT | Marine services | Other Formats
Station Details ID: 014277 Name: DUM IN MIRRIE AIRSTRIP Lat: -12.63 Lon: 130.37 Height: 3.5 m
Data from the previous 72 hours. | See also: Recent months at Dum In Mirrie
Date/Time
CST
Wind Sea
Height
m
Swell Vis
km
Cloud Weather Temp
°C
Press
MSL
hPa
Rain since
9am
mm
Dir  Spd
kts
Gust
kts
Height
m
Period
s
Dir
01/08:00pm NW 3 5 - - - - - - - 29.1 1007.5 0.4
01/07:30pm NW 3 5 - - - - - - - 29.2 1007.3 0.4
01/07:00pm WNW 3 7 - - - - - - - 29.5 1007.1 0.4
01/06:30pm NW 3 6 - - - - - - - 29.9 1006.6 0.4
01/06:00pm WNW 4 7 - - - - - - - 30.9 1006.4 0.4
01/05:30pm WNW 4 8 - - - - - - - 31.0 1006.3 0.4
01/05:00pm NW 4 7 - - - - - - - 31.4 1006.1 0.4
01/04:30pm NW 4 9 - - - - - - - 31.7 1006.3 0.4
01/04:00pm WNW 4 7 - - - - - - - 32.1 1006.3 0.4
01/03:30pm NW 4 9 - - - - - - - 32.3 1006.3 0.4
01/03:00pm NW 4 10 - - - - - - - 31.8 1006.5 0.4
01/02:30pm NNW 5 9 - - - - - - - 31.5 1006.9 0.4
01/02:00pm NNW 5 9 - - - - - - - 32.1 1007.3 0.4
01/01:30pm N 5 9 - - - - - - - 32.1 1007.9 0.4
01/01:00pm N 6 10 - - - - - - - 32.5 1008.5 0.4
01/12:30pm NNW 5 8 - - - - - - - 31.7 1009.0 0.4
01/12:00pm N 5 8 - - - - - - Recent precip. 31.6 1009.4 0.4
01/11:30am NNW 5 9 - - - - - - - 31.9 1009.7 0.2
01/11:00am NNW 4 8 - - - - - - - 31.4 1009.8 0.2
01/10:30am N 4 8 - - - - - - - 31.0 1010.1 0.2
01/10:00am NNW 2 5 - - - - - - - 29.5 1010.1 0.2
01/09:30am NW 2 6 - - - - - - - 28.0 1010.1 0.2
01/09:00am WNW 2 5 - - - - - - Rain 28.6 1010.0 4.8
01/08:30am WNW 2 5 - - - - - - - 29.1 1009.7 2.8
01/08:00am NW 3 6 - - - - - - - 28.7 1009.2 2.8
01/07:30am NNW 2 5 - - - - - - - 28.2 1008.9 2.8
01/07:00am NW 2 5 - - - - - - - 28.0 1008.8 2.8
01/06:30am NW 2 5 - - - - - - - 28.1 1008.5 2.8
01/06:00am NW 1 3 - - - - - - - 28.4 1008.2 2.8
01/05:30am WNW 4 7 - - - - - - - 28.6 1007.9 2.8
01/05:00am WNW 3 5 - - - - - - - 28.5 1007.6 2.8
01/04:30am WNW 3 5 - - - - - - - 28.5 1007.6 2.8
01/04:00am WNW 3 6 - - - - - - - 28.4 1007.5 2.8
01/03:30am WNW 3 9 - - - - - - - 28.5 1007.4 2.8
01/03:00am WNW 2 5 - - - - - - - 28.5 1007.6 2.8
01/02:30am WNW 3 5 - - - - - - - 28.5 1007.9 2.8
01/02:00am WNW 3 6 - - - - - - - 28.4 1008.1 2.8
01/01:30am WNW 2 5 - - - - - - - 28.3 1008.1 2.8
01/01:00am NW 3 7 - - - - - - - 28.3 1008.5 2.8
01/12:30am NW 2 4 - - - - - - - 28.0 1008.7 2.8
01/12:00am NW 3 6 - - - - - - Recent precip. 27.9 1008.9 2.8
 
Date/Time
CST
Wind Sea
Height
m
Swell Vis
km
Cloud Weather Temp
°C
Press
MSL
hPa
Rain since
9am
mm
Dir  Spd
kts
Gust
kts
Height
m
Period
s
Dir
29/11:30pm NW 4 7 - - - - - - - 27.5 1009.0 2.6
29/11:00pm NNW 3 7 - - - - - - - 28.9 1009.0 1.6
29/10:30pm NNW 2 4 - - - - - - - 28.8 1009.0 1.6
29/10:00pm NNW 3 6 - - - - - - - 28.9 1008.9 1.6
29/09:30pm NNW 4 7 - - - - - - - 29.1 1008.9 1.6
29/09:00pm NNW 3 7 - - - - - - - 29.0 1008.6 1.6
29/08:30pm NNW 3 9 - - - - - - - 28.8 1007.8 1.6
29/08:00pm N 3 7 - - - - - - - 28.8 1007.8 1.6
29/07:30pm NNW 5 8 - - - - - - - 28.9 1007.4 1.6
29/07:00pm NNW 6 11 - - - - - - - 29.3 1007.3 1.6
29/06:30pm NNW 5 9 - - - - - - - 29.5 1007.0 1.6
29/06:00pm NNW 5 9 - - - - - - - 30.2 1006.5 1.6
29/05:30pm NW 5 11 - - - - - - - 31.1 1006.2 1.6
29/05:00pm NW 5 10 - - - - - - - 30.3 1006.3 1.6
29/04:30pm NW 5 10 - - - - - - - 30.5 1006.0 1.6
29/04:00pm NW 7 13 - - - - - - - 30.9 1006.2 1.6
29/03:30pm N 4 7 - - - - - - - 30.4 1006.5 1.6
29/03:00pm NW 4 9 - - - - - - - 32.6 1006.8 0.0
29/02:30pm NNW 5 9 - - - - - - - 33.1 1007.0 0.0
29/02:00pm NW 5 10 - - - - - - - 32.8 1007.4 0.0
29/01:30pm N 6 11 - - - - - - - 32.7 1008.0 0.0
29/01:00pm N 6 12 - - - - - - - 32.5 1008.5 0.0
29/12:30pm NNE 6 11 - - - - - - - 33.5 1008.9 0.0
29/12:00pm N 6 11 - - - - - - - 32.8 1009.0 0.0
29/11:30am N 6 10 - - - - - - - 32.0 1009.3 0.0
29/11:00am N 5 9 - - - - - - - 32.5 1009.3 0.0
29/10:30am N 6 10 - - - - - - - 32.2 1009.3 0.0
29/10:00am NNW 5 9 - - - - - - - 31.8 1009.2 0.0
29/09:30am N 4 9 - - - - - - - 31.4 1009.2 0.0
29/09:00am N 4 7 - - - - - - - 30.8 1009.3 0.0
29/08:30am N 5 9 - - - - - - - 30.6 1008.9 0.0
29/08:00am N 3 7 - - - - - - - 29.2 1008.5 0.0
29/07:30am NNW 3 6 - - - - - - - 28.4 1008.1 0.0
29/07:00am N 2 3 - - - - - - - 27.3 1007.9 0.0
29/06:30am NNW 1 4 - - - - - - - 27.4 1007.8 0.0
29/06:00am N 3 5 - - - - - - - 27.7 1007.8 0.0
29/05:30am NNW 2 3 - - - - - - - 27.6 1007.6 0.0
29/05:00am N 2 5 - - - - - - - 27.5 1007.3 0.0
29/04:30am NNW 2 4 - - - - - - - 27.9 1007.1 0.0
29/04:00am NNW 3 5 - - - - - - - 27.8 1007.0 0.0
29/03:30am NNW 3 5 - - - - - - - 27.8 1007.0 0.0
29/03:00am NNW 2 5 - - - - - - - 28.2 1007.1 0.0
29/02:30am NW 3 5 - - - - - - - 28.5 1007.4 0.0
29/02:00am NNW 2 4 - - - - - - - 28.5 1007.6 0.0
29/01:30am NW 2 4 - - - - - - - 28.5 1007.9 0.0
29/01:00am NNW 3 5 - - - - - - - 28.5 1008.1 0.0
29/12:30am NW 3 6 - - - - - - - 28.4 1008.1 0.0
29/12:00am NNW 3 6 - - - - - - - 29.0 1008.2 0.0
 
Date/Time
CST
Wind Sea
Height
m
Swell Vis
km
Cloud Weather Temp
°C
Press
MSL
hPa
Rain since
9am
mm
Dir  Spd
kts
Gust
kts
Height
m
Period
s
Dir
28/11:30pm NNW 3 5 - - - - - - - 28.9 1008.2 0.0
28/11:00pm NNW 4 7 - - - - - - - 29.1 1008.3 0.0
28/10:30pm NW 3 6 - - - - - - - 29.1 1008.3 0.0
28/10:00pm NNW 4 6 - - - - - - - 29.0 1008.1 0.0
28/09:30pm NW 4 7 - - - - - - - 29.1 1007.7 0.0
28/09:00pm NW 3 8 - - - - - - - 29.1 1007.4 0.0
28/08:30pm NW 4 9 - - - - - - - 29.0 1007.2 0.0
28/08:00pm NW 4 7 - - - - - - - 29.0 1006.8 0.0
28/07:30pm NW 3 6 - - - - - - - 29.2 1006.6 0.0
28/07:00pm NNW 3 6 - - - - - - - 29.4 1006.5 0.0
28/06:30pm NNW 4 9 - - - - - - - 29.5 1006.3 0.0
28/06:00pm NNW 5 9 - - - - - - - 30.2 1005.9 0.0
28/05:30pm NW 5 12 - - - - - - - 32.1 1005.6 0.0
28/05:00pm NW 5 10 - - - - - - - 31.4 1005.4 0.0
28/04:30pm WNW 6 12 - - - - - - - 31.9 1005.6 0.0
28/04:00pm NW 6 11 - - - - - - - 32.6 1005.5 0.0
28/03:30pm NW 6 12 - - - - - - - 32.5 1005.4 0.0
28/03:00pm WNW 5 10 - - - - - - - 31.9 1005.7 0.0
28/02:30pm WNW 5 12 - - - - - - - 30.0 1006.0 0.0
28/02:00pm WNW 7 15 - - - - - - - 30.9 1006.4 0.0
28/01:30pm NNW 7 11 - - - - - - - 32.6 1006.7 0.0
28/01:00pm NW 6 10 - - - - - - - 32.5 1007.1 0.0
28/12:30pm NNW 5 11 - - - - - - - 32.4 1007.2 0.0
28/12:00pm NNW 5 10 - - - - - - - 31.5 1007.8 0.0
28/11:30am NNW 6 11 - - - - - - - 31.7 1007.8 0.0
28/11:00am NNW 6 9 - - - - - - - 31.4 1008.0 0.0
28/10:30am NW 5 10 - - - - - - - 30.3 1008.3 0.0
28/10:00am NNW 5 8 - - - - - - - 31.0 1008.0 0.0
28/09:30am NNW 6 11 - - - - - - - 31.1 1007.8 0.0
28/09:00am NNW 4 8 - - - - - - - 29.4 1007.7 0.0
28/08:30am NNW 4 10 - - - - - - - 30.3 1007.6 0.0
28/08:00am N 4 9 - - - - - - - 29.2 1007.3 0.0
28/07:30am N 3 8 - - - - - - - 28.7 1006.9 0.0
28/07:00am N 4 9 - - - - - - - 28.3 1006.6 0.0
28/06:30am N 5 8 - - - - - - - 28.2 1006.3 0.0
28/06:00am N 4 8 - - - - - - - 28.1 1006.1 0.0
28/05:30am N 4 7 - - - - - - - 28.1 1005.9 0.0
28/05:00am NNW 4 8 - - - - - - - 28.1 1006.0 0.0
28/04:30am NNW 3 6 - - - - - - - 27.8 1005.8 0.0
28/04:00am N 3 5 - - - - - - - 27.7 1005.7 0.0
28/03:30am N 3 5 - - - - - - - 27.9 1006.0 0.0
28/03:00am NNW 3 5 - - - - - - - 27.9 1006.1 0.0
28/02:30am NNW 3 5 - - - - - - - 27.9 1006.0 0.0
28/02:00am NNW 3 6 - - - - - - - 27.9 1006.1 0.0
28/01:30am NNW 3 5 - - - - - - - 27.9 1006.5 0.0
28/01:00am NNW 2 4 - - - - - - - 28.0 1006.9 0.0
28/12:30am NW 2 4 - - - - - - - 28.2 1007.2 0.0
28/12:00am NNW 3 6 - - - - - - - 28.6 1007.2 0.0
 
Date/Time
CST
Wind Sea
Height
m
Swell Vis
km
Cloud Weather Temp
°C
Press
MSL
hPa
Rain since
9am
mm
Dir  Spd
kts
Gust
kts
Height
m
Period
s
Dir
27/11:30pm NW 3 7 - - - - - - - 28.6 1007.3 0.0
27/11:00pm NNW 4 7 - - - - - - - 28.7 1007.2 0.0
27/10:30pm NW 4 7 - - - - - - - 28.8 1007.0 0.0
27/10:00pm WNW 3 7 - - - - - - - 28.8 1006.9 0.0
27/09:30pm NW 4 7 - - - - - - - 28.8 1006.9 0.0
27/09:00pm NW 4 7 - - - - - - - 28.9 1006.6 0.0
27/08:30pm NW 4 8 - - - - - - - 28.8 1006.1 0.0

Other formats

Comma delimited format used in spreadsheet applications
http://www.bom.gov.au/fwo/IDD60701/IDD60701.94116.axf

JavaScript Object Notation format (JSON) in row-major order
http://www.bom.gov.au/fwo/IDD60701/IDD60701.94116.json

Data quality

Most of these data are generated automatically and are frequently updated. Quality checks on data are not normally performed. It is possible for incorrect values to appear. Refer to information at About Latest Weather Observations and please check the disclaimer before using these data.